Time;durP1;ratioP1;P1;durP2;ratioP2;P2;SDS_P1;SDS_P2;PMS_P1;PMS_P2;Temp;Humidity;BMP_temperature;BMP_pressure;BME280_temperature;BME280_humidity;BME280_pressure;Samples;Min_cycle;Max_cycle;Signal;HPM_P1;HPM_P2
2022/02/24 00:00:33;;;;;;;12.00;10.77;;;3.50;99.90;;;;;;5020134;28;20275;-76
2022/02/24 00:02:59;;;;;;;12.03;10.97;;;3.50;99.90;;;;;;5019786;28;20207;-77
2022/02/24 00:05:26;;;;;;;11.60;10.60;;;3.50;99.90;;;;;;5019920;28;20427;-76
2022/02/24 00:07:54;;;;;;;11.20;10.30;;;3.40;99.90;;;;;;5012518;28;20316;-75
2022/02/24 00:10:21;;;;;;;11.60;10.70;;;3.40;99.90;;;;;;5022000;28;20207;-76
2022/02/24 00:12:48;;;;;;;11.67;10.60;;;3.40;99.90;;;;;;5017706;28;20306;-76
2022/02/24 00:15:15;;;;;;;11.93;10.93;;;3.40;99.90;;;;;;5021393;28;20247;-75
2022/02/24 00:17:44;;;;;;;11.70;10.80;;;3.40;99.90;;;;;;5022264;28;20987;-76
2022/02/24 00:20:12;;;;;;;11.37;10.43;;;3.50;99.90;;;;;;4999451;28;20459;-77
2022/02/24 00:22:39;;;;;;;11.60;10.70;;;3.50;99.90;;;;;;5023010;28;20275;-77
2022/02/24 00:25:07;;;;;;;12.27;11.17;;;3.50;99.90;;;;;;5016691;28;20439;-76
2022/02/24 00:27:34;;;;;;;11.27;10.47;;;3.50;99.90;;;;;;5022349;28;20458;-77
2022/02/24 00:30:02;;;;;;;11.40;10.50;;;3.50;99.90;;;;;;4997773;28;20585;-77
2022/02/24 00:32:29;;;;;;;11.60;10.67;;;3.60;99.90;;;;;;5017790;28;20258;-75
2022/02/24 00:34:58;;;;;;;12.17;11.13;;;3.70;99.90;;;;;;5023013;28;20588;-77
2022/02/24 00:37:25;;;;;;;12.77;11.60;;;3.70;99.90;;;;;;5023796;28;20625;-77
2022/02/24 00:39:53;;;;;;;12.33;11.10;;;3.80;99.90;;;;;;5011615;28;20239;-76
2022/02/24 00:42:20;;;;;;;11.87;10.87;;;3.90;99.90;;;;;;5045982;28;20453;-77
2022/02/24 00:44:47;;;;;;;12.30;11.20;;;3.90;99.90;;;;;;5011108;28;20759;-77
2022/02/24 00:47:13;;;;;;;12.47;11.17;;;3.90;99.90;;;;;;4997024;28;20204;-76
2022/02/24 00:49:40;;;;;;;12.17;11.23;;;3.90;99.90;;;;;;5005046;28;20200;-75
2022/02/24 00:52:09;;;;;;;12.43;11.43;;;3.90;99.90;;;;;;5024825;28;20254;-76
2022/02/24 00:54:36;;;;;;;12.70;11.60;;;3.90;99.90;;;;;;5003943;28;20219;-76
2022/02/24 00:57:03;;;;;;;13.10;11.67;;;3.90;99.90;;;;;;5008128;28;20286;-77
2022/02/24 00:59:30;;;;;;;12.43;11.37;;;3.90;99.90;;;;;;5019941;28;20208;-76
2022/02/24 01:01:57;;;;;;;11.60;10.63;;;3.90;99.90;;;;;;5015035;28;20254;-77
2022/02/24 01:04:24;;;;;;;12.53;11.23;;;4.00;99.90;;;;;;5001160;28;20513;-76
2022/02/24 01:06:51;;;;;;;11.77;10.60;;;3.90;99.90;;;;;;5009211;28;20681;-77
2022/02/24 01:09:19;;;;;;;12.30;11.20;;;3.90;99.90;;;;;;5024391;28;20192;-76
2022/02/24 01:11:46;;;;;;;11.40;10.50;;;3.90;99.90;;;;;;5022926;28;20201;-76
2022/02/24 01:14:13;;;;;;;12.10;11.10;;;3.90;99.90;;;;;;5023409;28;20618;-77
2022/02/24 01:16:40;;;;;;;12.60;11.60;;;3.90;99.90;;;;;;5022468;28;20201;-77
2022/02/24 01:19:06;;;;;;;11.83;10.83;;;3.90;99.90;;;;;;5024970;28;20278;-77
2022/02/24 01:21:34;;;;;;;12.27;11.27;;;3.80;99.90;;;;;;5004492;28;20669;-77
2022/02/24 01:24:01;;;;;;;12.60;11.50;;;3.80;99.90;;;;;;5008614;28;20475;-76
2022/02/24 01:26:29;;;;;;;11.67;10.77;;;3.70;99.90;;;;;;5022315;28;20247;-77
2022/02/24 01:28:56;;;;;;;11.70;10.80;;;3.70;99.90;;;;;;5023155;28;20201;-77
2022/02/24 01:31:23;;;;;;;11.97;11.03;;;3.60;99.90;;;;;;5005164;28;20226;-76
2022/02/24 01:33:50;;;;;;;12.53;11.43;;;3.50;99.90;;;;;;5025374;28;20275;-76
2022/02/24 01:36:17;;;;;;;12.80;11.80;;;3.50;99.90;;;;;;5007033;28;20446;-76
2022/02/24 01:38:44;;;;;;;12.30;11.37;;;3.50;99.90;;;;;;5022317;28;20248;-77
2022/02/24 01:41:11;;;;;;;12.53;11.53;;;3.50;99.90;;;;;;5006041;28;20634;-76
2022/02/24 01:43:43;;;;;;;12.23;11.23;;;3.40;99.90;;;;;;5004687;28;20649;-76
2022/02/24 01:46:10;;;;;;;11.93;11.00;;;3.30;99.90;;;;;;5022925;28;20228;-76
2022/02/24 01:48:37;;;;;;;12.20;11.30;;;3.30;99.90;;;;;;5022425;28;20521;-76
2022/02/24 01:51:04;;;;;;;12.07;10.93;;;3.20;99.90;;;;;;5022383;28;20919;-76
2022/02/24 01:53:31;;;;;;;11.63;10.53;;;3.10;99.90;;;;;;5024083;28;20220;-76
2022/02/24 01:55:57;;;;;;;11.40;10.50;;;3.10;99.90;;;;;;5004813;28;20853;-76
2022/02/24 01:58:24;;;;;;;12.30;11.20;;;3.00;99.90;;;;;;5022554;28;20534;-76
2022/02/24 02:00:52;;;;;;;12.20;11.20;;;3.00;99.90;;;;;;5004750;28;20447;-77
2022/02/24 02:03:19;;;;;;;13.47;12.23;;;3.00;99.90;;;;;;5023353;28;20968;-77
2022/02/24 02:05:47;;;;;;;13.20;12.10;;;3.00;99.90;;;;;;5023431;28;20196;-77
2022/02/24 02:08:14;;;;;;;14.03;12.77;;;3.00;99.90;;;;;;5026353;28;20198;-76
2022/02/24 02:10:41;;;;;;;13.00;11.80;;;2.90;99.90;;;;;;5019018;28;20434;-76
2022/02/24 02:13:08;;;;;;;13.67;12.33;;;2.90;99.90;;;;;;5023583;28;20340;-76
2022/02/24 02:15:35;;;;;;;12.40;11.40;;;2.80;99.90;;;;;;5010129;28;20490;-76
2022/02/24 02:18:03;;;;;;;11.97;10.97;;;2.80;99.90;;;;;;5028922;28;20523;-77
2022/02/24 02:20:30;;;;;;;13.47;12.10;;;2.80;99.90;;;;;;5004328;28;20834;-76
2022/02/24 02:22:58;;;;;;;12.47;11.47;;;2.80;99.90;;;;;;5004248;28;20459;-77
2022/02/24 02:25:25;;;;;;;12.50;11.47;;;2.80;99.90;;;;;;4999100;28;20199;-76
2022/02/24 02:27:53;;;;;;;12.57;11.47;;;2.80;99.90;;;;;;5024608;28;20199;-76
2022/02/24 02:30:21;;;;;;;12.43;11.43;;;2.70;99.90;;;;;;5004336;28;20972;-76
2022/02/24 02:32:48;;;;;;;12.10;11.20;;;2.70;99.90;;;;;;5024359;28;20440;-77
2022/02/24 02:35:16;;;;;;;11.90;11.00;;;2.70;99.90;;;;;;5028099;28;20330;-76
2022/02/24 02:37:43;;;;;;;12.17;11.07;;;2.70;99.90;;;;;;5008595;28;20458;-76
2022/02/24 02:40:12;;;;;;;11.70;10.80;;;2.70;99.90;;;;;;5023600;28;21062;-77
2022/02/24 02:42:39;;;;;;;12.43;11.30;;;2.70;99.90;;;;;;5037495;28;20441;-76
2022/02/24 02:45:08;;;;;;;11.80;10.90;;;2.70;99.90;;;;;;5022911;28;20519;-77
2022/02/24 02:47:34;;;;;;;11.60;10.70;;;2.70;99.90;;;;;;5021498;28;20426;-76
2022/02/24 02:50:02;;;;;;;13.20;12.10;;;2.70;99.90;;;;;;5003777;28;20966;-77
2022/02/24 02:52:28;;;;;;;12.90;11.70;;;2.80;99.90;;;;;;5013063;28;20438;-75
2022/02/24 02:55:02;;;;;;;12.83;11.60;;;2.80;99.90;;;;;;4995442;28;20897;-76
2022/02/24 02:57:30;;;;;;;12.03;11.13;;;2.90;99.90;;;;;;5012425;28;20590;-76
2022/02/24 02:59:57;;;;;;;12.10;11.27;;;2.90;99.90;;;;;;5012654;28;20463;-76
2022/02/24 03:02:24;;;;;;;12.33;11.33;;;2.90;99.90;;;;;;5002658;28;20973;-76
2022/02/24 03:04:51;;;;;;;12.93;11.73;;;2.90;99.90;;;;;;5012828;28;20526;-76
2022/02/24 03:07:18;;;;;;;12.30;11.20;;;2.90;99.90;;;;;;5019847;28;20452;-75
2022/02/24 03:09:45;;;;;;;12.33;11.40;;;2.90;99.90;;;;;;5023055;28;20932;-76
2022/02/24 03:12:12;;;;;;;12.87;11.70;;;2.90;99.90;;;;;;5005133;28;20435;-76
2022/02/24 03:14:41;;;;;;;12.53;11.63;;;3.00;99.90;;;;;;5005059;28;20478;-76
2022/02/24 03:17:08;;;;;;;13.67;12.67;;;3.00;99.90;;;;;;5021042;28;21002;-77
2022/02/24 03:19:35;;;;;;;12.83;11.73;;;3.00;99.90;;;;;;5007161;28;20836;-76
2022/02/24 03:22:02;;;;;;;12.70;11.60;;;3.00;99.90;;;;;;5027865;28;20214;-75
2022/02/24 03:24:28;;;;;;;12.63;11.73;;;2.90;99.90;;;;;;5020566;28;20455;-76
2022/02/24 03:26:55;;;;;;;13.43;12.33;;;2.80;99.90;;;;;;5005098;28;20451;-76
2022/02/24 03:29:22;;;;;;;15.37;13.80;;;2.80;99.90;;;;;;5021326;28;20497;-77
2022/02/24 03:31:50;;;;;;;15.00;13.70;;;2.70;99.90;;;;;;5020607;28;20469;-76
2022/02/24 03:34:17;;;;;;;16.33;14.77;;;2.70;99.90;;;;;;5023770;28;20245;-78
2022/02/24 03:36:44;;;;;;;21.43;14.57;;;2.60;99.90;;;;;;5030854;28;20447;-77
2022/02/24 03:39:11;;;;;;;15.43;13.83;;;2.60;99.90;;;;;;5031680;28;20474;-77
2022/02/24 03:41:38;;;;;;;15.50;13.90;;;2.60;99.90;;;;;;5040592;28;20973;-78
2022/02/24 03:44:05;;;;;;;15.53;14.13;;;2.50;99.90;;;;;;5037868;28;20464;-78
2022/02/24 03:46:32;;;;;;;15.33;13.73;;;2.50;99.90;;;;;;5042953;28;20928;-78
2022/02/24 03:49:00;;;;;;;15.10;13.53;;;2.50;99.90;;;;;;5029348;28;20440;-78
2022/02/24 03:51:27;;;;;;;14.77;13.23;;;2.50;99.90;;;;;;5047623;28;20437;-77
2022/02/24 03:53:54;;;;;;;13.97;12.77;;;2.50;99.90;;;;;;5012027;28;20469;-78
2022/02/24 03:56:21;;;;;;;13.90;12.63;;;2.50;99.90;;;;;;5008982;28;20446;-79
2022/02/24 03:58:48;;;;;;;13.77;12.60;;;2.50;99.90;;;;;;5031205;28;20489;-79
2022/02/24 04:01:14;;;;;;;14.30;13.00;;;2.50;99.90;;;;;;5012252;28;20478;-78
2022/02/24 04:03:41;;;;;;;13.53;12.30;;;2.60;99.90;;;;;;5011539;28;20494;-78
2022/02/24 04:06:10;;;;;;;13.67;12.37;;;2.60;99.90;;;;;;5029427;28;20550;-80
2022/02/24 04:08:36;;;;;;;13.87;12.57;;;2.60;99.90;;;;;;5007825;28;20458;-80
2022/02/24 04:11:03;;;;;;;13.40;12.20;;;2.60;99.90;;;;;;5025120;28;20439;-78
2022/02/24 04:13:30;;;;;;;12.97;11.87;;;2.50;99.90;;;;;;5031751;28;20529;-78
2022/02/24 04:15:58;;;;;;;14.23;12.83;;;2.50;99.90;;;;;;5023179;28;20462;-78
2022/02/24 04:18:25;;;;;;;13.83;12.73;;;2.50;99.90;;;;;;5027670;28;20448;-79
2022/02/24 04:20:52;;;;;;;15.00;13.80;;;2.50;99.90;;;;;;5029841;28;20443;-80
2022/02/24 04:23:20;;;;;;;13.37;12.40;;;2.50;99.90;;;;;;5016887;28;20470;-76
2022/02/24 04:25:47;;;;;;;13.20;12.13;;;2.50;99.90;;;;;;5023647;28;20804;-78
2022/02/24 04:28:14;;;;;;;14.27;12.93;;;2.50;99.90;;;;;;5022560;28;20451;-77
2022/02/24 04:30:41;;;;;;;13.30;12.23;;;2.40;99.90;;;;;;5021169;28;20440;-77
2022/02/24 04:33:08;;;;;;;12.80;11.80;;;2.40;99.90;;;;;;5007300;28;20866;-77
2022/02/24 04:35:35;;;;;;;12.77;11.80;;;2.40;99.90;;;;;;5021910;28;20437;-77
2022/02/24 04:38:02;;;;;;;12.73;11.73;;;2.40;99.90;;;;;;5020876;28;20490;-76
2022/02/24 04:40:30;;;;;;;13.27;12.23;;;2.30;99.90;;;;;;5021587;28;20485;-77
2022/02/24 04:42:57;;;;;;;13.07;12.10;;;2.30;99.90;;;;;;5022988;28;20446;-77
2022/02/24 04:45:24;;;;;;;14.20;13.00;;;2.40;99.90;;;;;;5027050;28;20441;-77
2022/02/24 04:47:51;;;;;;;15.67;14.20;;;2.40;99.90;;;;;;5025307;28;20461;-77
2022/02/24 04:50:17;;;;;;;14.73;13.43;;;2.50;99.90;;;;;;5020765;28;20473;-77
2022/02/24 04:52:44;;;;;;;18.17;16.00;;;2.40;99.90;;;;;;5019517;28;20427;-77
2022/02/24 04:55:11;;;;;;;21.70;17.17;;;2.40;99.90;;;;;;5002918;28;20455;-77
2022/02/24 04:57:40;;;;;;;18.77;16.77;;;2.50;99.90;;;;;;5022224;28;20462;-77
2022/02/24 05:00:09;;;;;;;18.73;16.73;;;2.50;99.90;;;;;;5021383;28;20486;-77
2022/02/24 05:02:36;;;;;;;18.73;16.73;;;2.60;99.90;;;;;;5024193;28;20855;-77
2022/02/24 05:05:03;;;;;;;17.07;15.37;;;2.60;99.90;;;;;;5025879;28;20511;-77
2022/02/24 05:07:30;;;;;;;15.80;14.20;;;2.60;99.90;;;;;;5021960;28;20437;-77
2022/02/24 05:09:58;;;;;;;15.77;14.30;;;2.60;99.90;;;;;;5005372;28;20241;-78
2022/02/24 05:12:25;;;;;;;17.93;14.43;;;2.70;99.90;;;;;;5002147;28;20447;-77
2022/02/24 05:14:53;;;;;;;15.30;14.00;;;2.70;99.90;;;;;;5019924;23;20518;-78
2022/02/24 05:17:20;;;;;;;15.60;14.30;;;2.70;99.90;;;;;;5001214;28;20789;-78
2022/02/24 05:19:47;;;;;;;16.20;14.80;;;2.70;99.90;;;;;;4984030;28;20475;-78
2022/02/24 05:22:14;;;;;;;15.93;14.23;;;2.60;99.90;;;;;;4992138;28;20470;-77
2022/02/24 05:24:40;;;;;;;16.90;15.20;;;2.60;99.90;;;;;;5006135;28;21006;-78
2022/02/24 05:27:07;;;;;;;19.40;17.30;;;2.60;99.90;;;;;;4999580;28;20432;-79
2022/02/24 05:29:34;;;;;;;17.83;16.00;;;2.60;99.90;;;;;;5003056;28;20436;-78
2022/02/24 05:32:03;;;;;;;17.33;15.23;;;2.60;99.90;;;;;;5003173;28;20444;-78
2022/02/24 05:34:30;;;;;;;16.77;15.17;;;2.60;99.90;;;;;;4985489;28;20553;-78
2022/02/24 05:36:57;;;;;;;17.10;15.50;;;2.60;99.90;;;;;;4975094;28;20516;-79
2022/02/24 05:39:24;;;;;;;18.93;17.07;;;2.60;99.90;;;;;;5003570;28;20491;-79
2022/02/24 05:41:51;;;;;;;21.97;18.20;;;2.60;99.90;;;;;;4986335;28;20799;-79
2022/02/24 05:44:17;;;;;;;20.47;17.13;;;2.60;99.90;;;;;;4986906;28;20475;-79
2022/02/24 05:46:44;;;;;;;20.13;17.73;;;2.50;99.90;;;;;;4983134;28;20503;-78
2022/02/24 05:49:15;;;;;;;21.03;17.20;;;2.50;99.90;;;;;;4980858;28;20455;-78
2022/02/24 05:51:41;;;;;;;19.23;16.30;;;2.50;99.90;;;;;;4984891;28;20893;-79
2022/02/24 05:54:08;;;;;;;18.00;16.10;;;2.60;99.90;;;;;;4984170;28;20483;-78
2022/02/24 05:56:35;;;;;;;19.43;16.77;;;2.60;99.90;;;;;;5004750;28;20455;-77
2022/02/24 05:59:02;;;;;;;18.30;16.33;;;2.50;99.90;;;;;;4998572;28;20456;-78
2022/02/24 06:01:29;;;;;;;18.67;16.23;;;2.50;99.90;;;;;;5001603;28;20451;-79
2022/02/24 06:03:56;;;;;;;20.27;17.27;;;2.50;99.90;;;;;;4980367;28;20847;-79
2022/02/24 06:06:24;;;;;;;22.80;20.47;;;2.40;99.90;;;;;;5005189;28;20860;-78
2022/02/24 06:08:51;;;;;;;19.03;17.10;;;2.40;99.90;;;;;;5007109;28;20431;-80
2022/02/24 06:11:18;;;;;;;18.37;16.57;;;2.40;99.90;;;;;;5002213;28;20460;-78
2022/02/24 06:13:44;;;;;;;17.23;15.63;;;2.40;99.90;;;;;;4987698;28;20584;-79
2022/02/24 06:16:11;;;;;;;17.53;15.73;;;2.40;99.90;;;;;;4996034;28;20441;-79
2022/02/24 06:18:38;;;;;;;18.20;16.33;;;2.40;99.90;;;;;;4990855;28;20483;-78
2022/02/24 06:21:05;;;;;;;17.00;15.37;;;2.40;99.90;;;;;;5002816;28;20490;-78
2022/02/24 06:23:33;;;;;;;16.33;14.73;;;2.40;99.90;;;;;;4980915;28;20482;-80
2022/02/24 06:26:00;;;;;;;16.23;14.90;;;2.40;99.90;;;;;;4989274;28;20460;-80
2022/02/24 06:28:27;;;;;;;14.80;13.50;;;2.40;99.90;;;;;;4977405;28;20455;-80
2022/02/24 06:30:54;;;;;;;16.00;14.40;;;2.40;99.90;;;;;;5005708;28;20808;-78
2022/02/24 06:33:20;;;;;;;15.53;14.13;;;2.40;99.90;;;;;;4990693;28;20444;-78
2022/02/24 06:35:47;;;;;;;15.20;13.70;;;2.40;99.90;;;;;;5005447;28;20816;-78
2022/02/24 06:38:14;;;;;;;15.83;14.23;;;2.40;99.90;;;;;;5003048;28;20445;-78
2022/02/24 06:40:43;;;;;;;16.60;15.00;;;2.40;99.90;;;;;;5006098;28;20467;-78
2022/02/24 06:43:09;;;;;;;16.53;14.80;;;2.50;99.90;;;;;;5004203;28;20439;-78
2022/02/24 06:45:36;;;;;;;16.23;14.60;;;2.50;99.90;;;;;;4990049;28;20458;-78
2022/02/24 06:48:04;;;;;;;14.50;13.20;;;2.50;99.90;;;;;;5001106;28;20953;-79
2022/02/24 06:50:31;;;;;;;13.17;11.80;;;2.50;99.90;;;;;;5004791;28;20439;-78
2022/02/24 06:52:58;;;;;;;12.67;11.57;;;2.50;99.90;;;;;;4978963;28;20523;-79
2022/02/24 06:55:25;;;;;;;13.50;12.20;;;2.60;99.90;;;;;;4986731;28;20484;-78
2022/02/24 06:57:54;;;;;;;14.77;13.40;;;2.70;99.90;;;;;;4986638;28;20455;-79
2022/02/24 07:00:21;;;;;;;14.57;12.53;;;2.80;99.90;;;;;;5002857;28;20761;-79
2022/02/24 07:02:49;;;;;;;14.90;13.40;;;2.90;99.90;;;;;;4987013;28;20448;-78
2022/02/24 07:05:16;;;;;;;14.10;13.10;;;3.00;99.90;;;;;;5007618;28;20463;-78
2022/02/24 07:07:43;;;;;;;15.37;13.97;;;3.10;99.90;;;;;;4980683;28;20248;-78
2022/02/24 07:10:12;;;;;;;15.33;14.03;;;3.20;99.90;;;;;;4986519;28;20689;-78
2022/02/24 07:12:39;;;;;;;15.47;14.27;;;3.30;99.90;;;;;;5004840;28;20212;-78
2022/02/24 07:15:08;;;;;;;14.93;13.83;;;3.40;99.90;;;;;;5002156;28;20234;-78
2022/02/24 07:17:40;;;;;;;15.40;14.20;;;3.50;99.90;;;;;;5000790;28;20201;-79
2022/02/24 07:20:08;;;;;;;15.30;14.17;;;3.60;99.90;;;;;;4980141;28;20703;-78
2022/02/24 07:22:35;;;;;;;15.87;14.63;;;3.60;99.90;;;;;;5004549;28;20688;-77
2022/02/24 07:25:01;;;;;;;15.53;14.17;;;3.70;99.90;;;;;;4988213;28;20590;-76
2022/02/24 07:27:28;;;;;;;15.77;14.57;;;3.80;99.90;;;;;;4989648;28;20192;-77
2022/02/24 07:29:55;;;;;;;15.80;14.50;;;3.90;99.90;;;;;;4997964;28;20197;-76
2022/02/24 07:32:23;;;;;;;15.57;14.47;;;3.90;99.90;;;;;;4983560;28;20224;-77
2022/02/24 07:34:50;;;;;;;15.77;14.47;;;4.10;99.90;;;;;;5000499;28;20563;-77
2022/02/24 07:37:17;;;;;;;15.40;13.93;;;4.20;99.90;;;;;;4984764;28;20264;-77
2022/02/24 07:39:44;;;;;;;14.43;13.33;;;4.30;99.90;;;;;;5002835;28;20224;-78
2022/02/24 07:42:11;;;;;;;13.43;12.07;;;4.40;99.90;;;;;;4986504;28;20209;-79
2022/02/24 07:44:39;;;;;;;13.53;12.23;;;4.60;99.90;;;;;;4971005;28;20248;-79
2022/02/24 07:47:06;;;;;;;15.63;14.13;;;4.70;99.90;;;;;;4973740;28;20209;-78
2022/02/24 07:49:34;;;;;;;9.63;7.27;;;4.80;99.90;;;;;;4996641;28;20674;-78
2022/02/24 07:52:01;;;;;;;9.60;7.70;;;5.00;99.90;;;;;;4993838;28;20268;-79
2022/02/24 07:54:28;;;;;;;7.83;7.03;;;5.20;99.90;;;;;;5000559;28;20216;-77
2022/02/24 07:56:54;;;;;;;14.37;13.10;;;5.50;99.90;;;;;;4995746;28;20204;-78
2022/02/24 07:59:21;;;;;;;8.87;7.90;;;5.80;99.90;;;;;;4991688;28;20197;-77
2022/02/24 08:01:49;;;;;;;8.27;6.23;;;6.10;99.90;;;;;;4999083;28;20212;-78
2022/02/24 08:04:16;;;;;;;7.20;6.50;;;6.40;99.90;;;;;;5000828;28;20221;-77
2022/02/24 08:06:45;;;;;;;7.00;6.10;;;6.70;99.90;;;;;;4980106;28;20296;-77
2022/02/24 08:09:12;;;;;;;9.40;7.83;;;7.10;99.90;;;;;;4983225;28;20253;-77
2022/02/24 08:11:38;;;;;;;11.07;7.17;;;7.40;99.90;;;;;;4987141;28;20198;-77
2022/02/24 08:14:06;;;;;;;6.93;6.23;;;7.80;99.90;;;;;;4995912;28;20347;-77
2022/02/24 08:16:33;;;;;;;12.37;11.37;;;8.30;99.90;;;;;;4983354;28;20589;-78
2022/02/24 08:19:00;;;;;;;7.27;6.33;;;8.60;99.90;;;;;;4998507;28;20211;-77
2022/02/24 08:21:27;;;;;;;14.27;12.90;;;8.90;99.90;;;;;;4973494;28;20216;-78
2022/02/24 08:23:55;;;;;;;12.07;11.07;;;9.20;99.90;;;;;;5001409;28;20236;-77
2022/02/24 08:26:22;;;;;;;9.47;8.47;;;9.30;99.90;;;;;;4986278;28;20235;-76
2022/02/24 08:28:50;;;;;;;13.40;12.30;;;9.40;99.90;;;;;;4989881;28;20213;-77
2022/02/24 08:31:17;;;;;;;13.27;12.37;;;9.70;99.90;;;;;;4978632;28;20674;-78
2022/02/24 08:33:43;;;;;;;12.60;11.50;;;9.80;99.90;;;;;;4988982;28;20227;-78
2022/02/24 08:36:10;;;;;;;12.67;11.60;;;9.80;99.90;;;;;;4996062;28;20201;-78
2022/02/24 08:38:37;;;;;;;11.03;10.13;;;10.10;99.90;;;;;;5005029;28;20275;-77
2022/02/24 08:41:05;;;;;;;10.93;10.00;;;10.20;99.90;;;;;;4993742;28;20248;-77
2022/02/24 08:43:33;;;;;;;13.17;12.10;;;10.40;99.90;;;;;;4990452;28;20217;-79
2022/02/24 08:45:59;;;;;;;13.30;12.23;;;10.50;99.90;;;;;;4994259;28;20202;-78
2022/02/24 08:48:26;;;;;;;10.27;9.37;;;10.60;99.90;;;;;;4971976;28;20201;-78
2022/02/24 08:50:53;;;;;;;10.40;9.40;;;10.50;99.90;;;;;;4974268;28;20201;-79
2022/02/24 08:53:20;;;;;;;10.90;9.90;;;10.40;99.90;;;;;;4978988;28;20206;-79
2022/02/24 08:55:47;;;;;;;10.60;9.63;;;10.50;99.90;;;;;;4980977;28;20206;-79
2022/02/24 08:58:16;;;;;;;12.27;10.30;;;10.80;99.90;;;;;;4974383;28;20257;-82
2022/02/24 09:00:47;;;;;;;11.80;10.80;;;11.00;99.90;;;;;;4974647;28;20218;-79
2022/02/24 09:03:14;;;;;;;6.47;5.83;;;10.90;99.90;;;;;;5000693;28;20217;-80
2022/02/24 09:05:42;;;;;;;10.00;9.00;;;11.10;99.90;;;;;;4980526;28;20214;-79
2022/02/24 09:08:09;;;;;;;8.90;8.10;;;11.30;99.90;;;;;;4983959;28;20221;-79
2022/02/24 09:10:36;;;;;;;8.90;8.00;;;11.50;99.90;;;;;;4998026;28;20202;-79
2022/02/24 09:13:04;;;;;;;9.70;7.73;;;11.80;99.90;;;;;;4987419;28;20203;-79
2022/02/24 09:15:32;;;;;;;10.47;9.60;;;12.00;99.90;;;;;;4981306;28;20207;-79
2022/02/24 09:17:59;;;;;;;12.03;11.13;;;12.30;99.90;;;;;;4986495;28;20196;-80
2022/02/24 09:20:27;;;;;;;12.80;11.67;;;12.30;99.90;;;;;;5006284;28;20614;-79
2022/02/24 09:22:54;;;;;;;7.83;7.13;;;12.20;99.90;;;;;;4993083;28;20287;-78
2022/02/24 09:25:21;;;;;;;10.40;9.50;;;12.70;99.90;;;;;;4992323;28;20225;-77
2022/02/24 09:27:48;;;;;;;9.60;8.90;;;12.90;99.90;;;;;;4982062;28;20207;-78
2022/02/24 09:30:14;;;;;;;11.23;10.23;;;13.10;99.90;;;;;;4990617;28;20228;-78
2022/02/24 09:32:43;;;;;;;10.80;9.83;;;13.10;99.90;;;;;;4988769;28;20200;-78
2022/02/24 09:35:11;;;;;;;11.10;10.30;;;13.10;99.90;;;;;;4998842;28;20217;-79
2022/02/24 09:37:38;;;;;;;10.73;9.83;;;13.30;99.90;;;;;;4992207;28;20208;-78
2022/02/24 09:40:07;;;;;;;10.43;9.63;;;13.70;99.90;;;;;;4999049;28;20202;-78
2022/02/24 09:42:35;;;;;;;6.60;5.87;;;14.10;99.90;;;;;;4986833;28;20573;-78
2022/02/24 09:45:02;;;;;;;9.33;8.63;;;14.50;99.90;;;;;;5007081;28;20218;-78
2022/02/24 09:47:29;;;;;;;6.10;5.40;;;14.70;99.90;;;;;;5000491;28;20281;-78
2022/02/24 09:49:59;;;;;;;7.43;5.63;;;15.10;99.90;;;;;;4988160;28;20203;-78
2022/02/24 09:52:26;;;;;;;8.50;6.27;;;15.30;99.90;;;;;;4990702;28;20194;-78
2022/02/24 09:54:53;;;;;;;5.37;4.50;;;15.40;99.90;;;;;;5006171;28;20212;-78
2022/02/24 09:57:20;;;;;;;7.70;7.00;;;15.70;99.90;;;;;;5004497;28;20203;-78
2022/02/24 09:59:47;;;;;;;8.70;7.77;;;15.80;99.90;;;;;;4999574;28;20201;-78
2022/02/24 10:02:15;;;;;;;10.43;9.57;;;16.00;99.90;;;;;;4987924;28;20307;-78
2022/02/24 10:05:05;;;;;;;10.10;9.13;;;16.20;99.90;;;;;;4983744;28;20283;-77
2022/02/24 10:07:35;;;;;;;11.93;8.80;;;16.30;99.90;;;;;;4985609;28;20251;-78
2022/02/24 10:10:22;;;;;;;6.33;5.73;;;16.30;99.90;;;;;;4996277;28;20713;-77
2022/02/24 10:13:00;;;;;;;6.30;5.50;;;16.20;99.90;;;;;;5004834;28;20736;-77
2022/02/24 10:15:27;;;;;;;6.10;5.10;;;16.20;99.90;;;;;;5002069;28;20624;-79
2022/02/24 10:18:09;;;;;;;6.43;5.80;;;16.10;99.90;;;;;;5004199;28;20201;-78
2022/02/24 10:20:39;;;;;;;6.93;6.23;;;16.10;99.90;;;;;;5002063;28;20731;-78
2022/02/24 10:23:06;;;;;;;6.90;6.30;;;15.90;99.90;;;;;;4985914;28;20222;-78
2022/02/24 10:25:38;;;;;;;6.67;5.97;;;15.80;99.90;;;;;;4992765;28;20296;-78
2022/02/24 10:28:05;;;;;;;8.20;7.40;;;15.70;99.90;;;;;;4975850;28;20766;-78
2022/02/24 10:30:33;;;;;;;9.70;9.07;;;15.60;99.90;;;;;;4987752;28;20195;-78
2022/02/24 10:33:01;;;;;;;9.47;8.77;;;15.50;99.90;;;;;;5004271;28;20192;-79
2022/02/24 10:35:29;;;;;;;9.10;8.50;;;15.40;99.90;;;;;;4972788;28;20314;-78
2022/02/24 10:38:01;;;;;;;9.20;8.50;;;15.40;99.90;;;;;;4984216;28;20211;-78
2022/02/24 10:40:30;;;;;;;9.00;8.40;;;15.40;99.90;;;;;;4981604;28;20205;-79
2022/02/24 10:43:20;;;;;;;9.10;8.50;;;15.30;99.90;;;;;;5005129;28;20558;-78
2022/02/24 10:45:58;;;;;;;8.70;8.20;;;15.20;99.90;;;;;;4983105;28;20686;-78
2022/02/24 10:48:25;;;;;;;9.23;8.27;;;15.20;99.90;;;;;;5002543;28;20231;-78
2022/02/24 10:50:55;;;;;;;9.00;8.20;;;15.20;99.90;;;;;;4985177;28;20239;-80
2022/02/24 10:53:28;;;;;;;9.70;8.90;;;15.20;99.90;;;;;;5003571;28;20203;-78
2022/02/24 10:56:00;;;;;;;8.80;8.20;;;15.20;99.90;;;;;;4978949;28;20345;-79
2022/02/24 10:58:28;;;;;;;8.93;8.30;;;15.20;99.90;;;;;;4996584;28;20208;-78
2022/02/24 11:01:04;;;;;;;8.50;7.87;;;15.20;99.90;;;;;;4996845;28;20235;-79
2022/02/24 11:03:31;;;;;;;8.43;7.93;;;15.20;99.90;;;;;;4991522;28;20216;-79
2022/02/24 11:05:59;;;;;;;8.70;8.10;;;15.30;99.90;;;;;;4983517;28;20206;-79
2022/02/24 11:08:29;;;;;;;8.57;8.07;;;15.30;99.90;;;;;;5000548;28;20617;-79
2022/02/24 11:10:59;;;;;;;8.40;7.70;;;15.30;99.90;;;;;;4986468;28;20660;-78
2022/02/24 11:16:03;;;;;;;8.80;8.20;;;15.10;99.90;;;;;;4981466;28;20839;-76
2022/02/24 11:18:30;;;;;;;8.80;8.20;;;15.00;99.90;;;;;;4983361;28;20674;-78
2022/02/24 11:20:58;;;;;;;8.90;8.20;;;15.00;99.90;;;;;;4952846;28;20643;-78
2022/02/24 11:23:25;;;;;;;8.80;8.20;;;14.90;99.90;;;;;;4974458;28;20673;-78
2022/02/24 11:26:02;;;;;;;8.63;7.93;;;14.90;99.90;;;;;;4976002;28;20234;-77
2022/02/24 11:28:34;;;;;;;9.10;8.40;;;14.90;99.90;;;;;;4992442;28;20263;-78
2022/02/24 11:31:10;;;;;;;8.73;8.03;;;15.00;99.90;;;;;;4993982;28;20735;-78
2022/02/24 11:33:37;;;;;;;5.17;4.80;;;15.00;99.90;;;;;;4973580;28;20231;-79
2022/02/24 11:36:12;;;;;;;3.53;3.07;;;15.00;99.90;;;;;;4994178;28;20222;-77
2022/02/24 11:38:40;;;;;;;5.70;5.30;;;15.10;99.90;;;;;;4992431;28;20284;-78
2022/02/24 11:41:10;;;;;;;8.40;7.80;;;15.20;99.90;;;;;;4992732;28;20208;-79
2022/02/24 11:43:43;;;;;;;8.17;7.47;;;15.20;99.90;;;;;;4994424;28;20238;-78
2022/02/24 11:46:11;;;;;;;8.30;7.60;;;15.30;99.90;;;;;;4997055;28;20206;-79
2022/02/24 11:48:38;;;;;;;8.50;7.80;;;15.30;99.90;;;;;;4992916;28;20287;-80
2022/02/24 11:51:07;;;;;;;8.03;7.50;;;15.50;99.90;;;;;;4975774;28;20693;-79
2022/02/24 11:53:38;;;;;;;8.20;7.50;;;15.50;99.90;;;;;;4996317;28;20209;-80
2022/02/24 11:56:05;;;;;;;8.37;7.70;;;15.40;99.90;;;;;;4978479;28;20206;-79
2022/02/24 11:58:49;;;;;;;7.77;7.07;;;15.40;99.90;;;;;;4983990;28;20221;-77
2022/02/24 12:01:27;;;;;;;7.50;7.00;;;15.30;99.90;;;;;;4976344;28;20220;-77
2022/02/24 12:04:13;;;;;;;8.17;7.47;;;15.20;99.90;;;;;;4976118;28;20238;-79
2022/02/24 12:06:48;;;;;;;7.80;7.23;;;15.30;99.90;;;;;;4974397;28;20246;-77
2022/02/24 12:09:30;;;;;;;8.03;7.50;;;15.30;99.90;;;;;;4992663;28;20213;-77
2022/02/24 12:11:59;;;;;;;8.00;7.40;;;15.40;99.90;;;;;;4965106;28;20703;-78
2022/02/24 12:14:47;;;;;;;7.80;7.30;;;15.40;99.90;;;;;;4993861;28;20227;-77
2022/02/24 12:17:20;;;;;;;8.33;7.70;;;15.40;99.90;;;;;;4990870;28;20204;-78
2022/02/24 12:19:49;;;;;;;8.40;7.77;;;15.40;99.90;;;;;;4982011;28;20688;-78
2022/02/24 12:22:22;;;;;;;7.80;7.20;;;15.30;99.90;;;;;;5001215;28;20230;-78
2022/02/24 12:24:51;;;;;;;7.60;7.10;;;15.30;99.90;;;;;;4989585;28;20247;-78
2022/02/24 12:27:28;;;;;;;7.43;7.03;;;15.30;99.90;;;;;;4991794;28;20558;-77
2022/02/24 12:29:59;;;;;;;7.87;7.10;;;15.30;99.90;;;;;;4999460;28;20279;-77
2022/02/24 12:32:40;;;;;;;8.40;7.60;;;15.30;99.90;;;;;;4976114;28;20201;-78
2022/02/24 12:35:08;;;;;;;7.90;7.40;;;15.30;99.90;;;;;;4993205;28;20221;-77
2022/02/24 12:37:35;;;;;;;7.93;7.23;;;15.10;99.90;;;;;;4993050;28;20202;-77
2022/02/24 12:40:03;;;;;;;7.60;7.10;;;15.10;99.90;;;;;;4993503;28;20200;-78
2022/02/24 12:42:30;;;;;;;9.30;7.50;;;15.00;99.90;;;;;;4983529;28;20224;-77
2022/02/24 12:44:59;;;;;;;8.00;7.40;;;15.00;99.90;;;;;;4993910;28;20212;-78
2022/02/24 12:47:27;;;;;;;8.50;7.80;;;14.90;99.90;;;;;;4993428;28;20292;-77